sensor_id;sensor_type;location;lat;lon;timestamp;pressure;altitude;pressure_sealevel;temperature;humidity
51333;BME280;37417;48.118;11.734;2023-04-27T00:01:24;95458.19;;;2.66;100.00
51333;BME280;37417;48.118;11.734;2023-04-27T00:04:09;95453.22;;;3.09;100.00
51333;BME280;37417;48.118;11.734;2023-04-27T00:06:55;95447.56;;;3.05;100.00
51333;BME280;37417;48.118;11.734;2023-04-27T00:09:41;95448.81;;;3.01;100.00
51333;BME280;37417;48.118;11.734;2023-04-27T00:12:26;95451.69;;;2.98;100.00
51333;BME280;37417;48.118;11.734;2023-04-27T00:15:12;95451.69;;;2.80;100.00
51333;BME280;37417;48.118;11.734;2023-04-27T00:17:57;95440.22;;;2.75;100.00
51333;BME280;37417;48.118;11.734;2023-04-27T00:20:43;95439.50;;;2.64;100.00
51333;BME280;37417;48.118;11.734;2023-04-27T00:23:29;95450.75;;;2.81;100.00
51333;BME280;37417;48.118;11.734;2023-04-27T00:26:14;61376.22;;;-141.85;100.00
51333;BME280;37417;48.118;11.734;2023-04-27T00:29:00;61376.22;;;-141.85;100.00
51333;BME280;37417;48.118;11.734;2023-04-27T00:31:46;61376.22;;;-141.85;100.00
51333;BME280;37417;48.118;11.734;2023-04-27T00:34:31;61376.22;;;-141.85;100.00
51333;BME280;37417;48.118;11.734;2023-04-27T00:37:17;95436.94;;;3.08;100.00
51333;BME280;37417;48.118;11.734;2023-04-27T00:40:04;95429.22;;;3.08;100.00
51333;BME280;37417;48.118;11.734;2023-04-27T00:42:53;95443.00;;;2.99;100.00
51333;BME280;37417;48.118;11.734;2023-04-27T00:45:41;95439.03;;;2.87;100.00
51333;BME280;37417;48.118;11.734;2023-04-27T00:48:27;95436.03;;;2.74;100.00
51333;BME280;37417;48.118;11.734;2023-04-27T00:51:13;95438.66;;;2.64;100.00
51333;BME280;37417;48.118;11.734;2023-04-27T00:53:59;95429.03;;;2.48;100.00
51333;BME280;37417;48.118;11.734;2023-04-27T00:56:51;95434.75;;;2.42;100.00
51333;BME280;37417;48.118;11.734;2023-04-27T00:59:37;95433.63;;;2.44;100.00
51333;BME280;37417;48.118;11.734;2023-04-27T01:02:23;95429.59;;;2.42;100.00
51333;BME280;37417;48.118;11.734;2023-04-27T01:05:09;95435.63;;;2.51;100.00
51333;BME280;37417;48.118;11.734;2023-04-27T01:07:55;95436.38;;;2.61;100.00
51333;BME280;37417;48.118;11.734;2023-04-27T01:10:40;95440.31;;;2.65;100.00
51333;BME280;37417;48.118;11.734;2023-04-27T01:13:26;95436.19;;;2.72;100.00
51333;BME280;37417;48.118;11.734;2023-04-27T01:16:12;95442.78;;;2.75;100.00
51333;BME280;37417;48.118;11.734;2023-04-27T01:18:58;95437.22;;;2.79;100.00
51333;BME280;37417;48.118;11.734;2023-04-27T01:21:43;95436.84;;;2.74;100.00
51333;BME280;37417;48.118;11.734;2023-04-27T01:24:29;95437.25;;;2.69;100.00
51333;BME280;37417;48.118;11.734;2023-04-27T01:27:15;95437.56;;;2.66;100.00
51333;BME280;37417;48.118;11.734;2023-04-27T01:30:00;95452.88;;;2.68;100.00
51333;BME280;37417;48.118;11.734;2023-04-27T01:32:46;95448.03;;;2.65;100.00
51333;BME280;37417;48.118;11.734;2023-04-27T01:35:31;95445.22;;;2.58;100.00
51333;BME280;37417;48.118;11.734;2023-04-27T01:38:17;95441.97;;;2.56;100.00
51333;BME280;37417;48.118;11.734;2023-04-27T01:41:04;95445.34;;;2.57;100.00
51333;BME280;37417;48.118;11.734;2023-04-27T01:43:50;95449.91;;;2.63;100.00
51333;BME280;37417;48.118;11.734;2023-04-27T01:46:35;95451.09;;;2.68;100.00
51333;BME280;37417;48.118;11.734;2023-04-27T01:49:21;95446.41;;;2.82;100.00
51333;BME280;37417;48.118;11.734;2023-04-27T01:52:07;95451.13;;;2.86;100.00
51333;BME280;37417;48.118;11.734;2023-04-27T01:54:52;95455.09;;;2.81;100.00
51333;BME280;37417;48.118;11.734;2023-04-27T01:57:38;95455.09;;;2.81;100.00
51333;BME280;37417;48.118;11.734;2023-04-27T02:00:24;95459.59;;;2.79;100.00
51333;BME280;37417;48.118;11.734;2023-04-27T02:03:09;95467.31;;;2.79;100.00
51333;BME280;37417;48.118;11.734;2023-04-27T02:05:55;95466.78;;;2.75;100.00
51333;BME280;37417;48.118;11.734;2023-04-27T02:08:41;95460.16;;;2.72;100.00
51333;BME280;37417;48.118;11.734;2023-04-27T02:11:26;95470.50;;;2.63;100.00
51333;BME280;37417;48.118;11.734;2023-04-27T02:14:12;95466.19;;;2.46;100.00
51333;BME280;37417;48.118;11.734;2023-04-27T02:16:58;95469.44;;;2.38;100.00
51333;BME280;37417;48.118;11.734;2023-04-27T02:19:44;95468.16;;;2.24;100.00
51333;BME280;37417;48.118;11.734;2023-04-27T02:22:29;95467.84;;;2.09;100.00
51333;BME280;37417;48.118;11.734;2023-04-27T02:25:15;95480.47;;;2.03;100.00
51333;BME280;37417;48.118;11.734;2023-04-27T02:28:01;95477.25;;;2.01;100.00
51333;BME280;37417;48.118;11.734;2023-04-27T02:30:47;95482.81;;;1.96;100.00
51333;BME280;37417;48.118;11.734;2023-04-27T02:33:32;95490.94;;;1.92;100.00
51333;BME280;37417;48.118;11.734;2023-04-27T02:36:18;95484.97;;;1.91;100.00
51333;BME280;37417;48.118;11.734;2023-04-27T02:39:04;95489.59;;;1.87;100.00
51333;BME280;37417;48.118;11.734;2023-04-27T02:41:50;95488.59;;;1.98;100.00
51333;BME280;37417;48.118;11.734;2023-04-27T02:44:35;95481.28;;;2.03;100.00
51333;BME280;37417;48.118;11.734;2023-04-27T02:47:21;95481.28;;;2.03;100.00
51333;BME280;37417;48.118;11.734;2023-04-27T02:50:07;95487.16;;;2.68;100.00
51333;BME280;37417;48.118;11.734;2023-04-27T02:52:53;95487.59;;;2.64;100.00
51333;BME280;37417;48.118;11.734;2023-04-27T02:55:44;95488.84;;;2.60;100.00
51333;BME280;37417;48.118;11.734;2023-04-27T02:58:33;95486.53;;;2.39;100.00
51333;BME280;37417;48.118;11.734;2023-04-27T03:01:19;95487.72;;;2.17;100.00
51333;BME280;37417;48.118;11.734;2023-04-27T03:04:05;95488.34;;;2.01;100.00
51333;BME280;37417;48.118;11.734;2023-04-27T03:06:51;95491.31;;;1.97;100.00
51333;BME280;37417;48.118;11.734;2023-04-27T03:09:36;95491.88;;;1.90;100.00
51333;BME280;37417;48.118;11.734;2023-04-27T03:12:22;61376.22;;;-141.85;100.00
51333;BME280;37417;48.118;11.734;2023-04-27T03:15:08;61376.22;;;-141.85;100.00
51333;BME280;37417;48.118;11.734;2023-04-27T03:17:54;61376.22;;;-141.85;100.00
51333;BME280;37417;48.118;11.734;2023-04-27T03:20:40;95492.78;;;1.99;100.00
51333;BME280;37417;48.118;11.734;2023-04-27T03:23:25;95490.44;;;2.15;100.00
51333;BME280;37417;48.118;11.734;2023-04-27T03:26:13;95489.91;;;2.12;100.00
51333;BME280;37417;48.118;11.734;2023-04-27T03:28:58;95491.31;;;2.06;100.00
51333;BME280;37417;48.118;11.734;2023-04-27T03:31:45;95503.94;;;2.27;100.00
51333;BME280;37417;48.118;11.734;2023-04-27T03:34:31;95501.94;;;2.21;100.00
51333;BME280;37417;48.118;11.734;2023-04-27T03:37:16;95507.31;;;2.28;100.00
51333;BME280;37417;48.118;11.734;2023-04-27T03:40:02;95498.22;;;2.33;100.00
51333;BME280;37417;48.118;11.734;2023-04-27T03:42:51;95498.22;;;2.33;100.00
51333;BME280;37417;48.118;11.734;2023-04-27T03:45:37;95505.38;;;2.57;100.00
51333;BME280;37417;48.118;11.734;2023-04-27T03:48:23;95503.72;;;2.66;100.00
51333;BME280;37417;48.118;11.734;2023-04-27T03:51:08;95505.75;;;2.62;100.00
51333;BME280;37417;48.118;11.734;2023-04-27T03:53:54;95499.16;;;2.60;100.00
51333;BME280;37417;48.118;11.734;2023-04-27T03:56:40;95489.66;;;2.60;100.00
51333;BME280;37417;48.118;11.734;2023-04-27T03:59:28;95489.59;;;2.88;100.00
51333;BME280;37417;48.118;11.734;2023-04-27T04:02:14;95486.59;;;2.92;100.00
51333;BME280;37417;48.118;11.734;2023-04-27T04:05:00;95498.44;;;2.85;100.00
51333;BME280;37417;48.118;11.734;2023-04-27T04:07:45;95498.66;;;2.92;100.00
51333;BME280;37417;48.118;11.734;2023-04-27T04:10:31;95506.97;;;2.86;100.00
51333;BME280;37417;48.118;11.734;2023-04-27T04:13:17;95511.09;;;2.79;100.00
51333;BME280;37417;48.118;11.734;2023-04-27T04:16:04;95512.56;;;2.81;100.00
51333;BME280;37417;48.118;11.734;2023-04-27T04:18:50;95510.91;;;2.90;100.00
51333;BME280;37417;48.118;11.734;2023-04-27T04:21:36;95519.69;;;2.87;100.00
51333;BME280;37417;48.118;11.734;2023-04-27T04:24:21;95519.56;;;3.24;100.00
51333;BME280;37417;48.118;11.734;2023-04-27T04:27:07;95525.59;;;3.33;100.00
51333;BME280;37417;48.118;11.734;2023-04-27T04:29:53;95529.94;;;3.33;100.00
51333;BME280;37417;48.118;11.734;2023-04-27T04:32:39;95532.97;;;3.28;100.00
51333;BME280;37417;48.118;11.734;2023-04-27T04:35:25;95537.13;;;3.47;100.00
51333;BME280;37417;48.118;11.734;2023-04-27T04:38:11;95539.84;;;3.63;100.00
51333;BME280;37417;48.118;11.734;2023-04-27T04:40:57;95538.66;;;3.75;100.00
51333;BME280;37417;48.118;11.734;2023-04-27T04:43:43;95542.53;;;3.79;100.00
51333;BME280;37417;48.118;11.734;2023-04-27T04:46:29;95539.75;;;3.73;100.00
51333;BME280;37417;48.118;11.734;2023-04-27T04:49:15;95552.44;;;3.66;100.00
51333;BME280;37417;48.118;11.734;2023-04-27T04:52:00;95550.16;;;3.81;100.00
51333;BME280;37417;48.118;11.734;2023-04-27T04:54:46;95550.56;;;3.94;100.00
51333;BME280;37417;48.118;11.734;2023-04-27T04:57:32;95542.94;;;3.93;100.00
51333;BME280;37417;48.118;11.734;2023-04-27T05:00:17;95549.84;;;4.10;100.00
51333;BME280;37417;48.118;11.734;2023-04-27T05:03:03;95548.66;;;4.30;100.00
51333;BME280;37417;48.118;11.734;2023-04-27T05:05:49;95549.19;;;4.42;100.00
51333;BME280;37417;48.118;11.734;2023-04-27T05:08:34;95556.31;;;4.48;100.00
51333;BME280;37417;48.118;11.734;2023-04-27T05:11:21;95550.97;;;4.42;100.00
51333;BME280;37417;48.118;11.734;2023-04-27T05:14:07;95559.72;;;4.49;100.00
51333;BME280;37417;48.118;11.734;2023-04-27T05:16:52;95553.00;;;4.64;100.00
51333;BME280;37417;48.118;11.734;2023-04-27T05:19:38;95545.00;;;4.83;100.00
51333;BME280;37417;48.118;11.734;2023-04-27T05:22:24;95548.25;;;5.02;100.00
51333;BME280;37417;48.118;11.734;2023-04-27T05:25:10;95548.31;;;5.34;100.00
51333;BME280;37417;48.118;11.734;2023-04-27T05:27:56;95547.69;;;5.57;100.00
51333;BME280;37417;48.118;11.734;2023-04-27T05:30:41;95544.44;;;5.71;100.00
51333;BME280;37417;48.118;11.734;2023-04-27T05:33:27;95547.03;;;5.87;100.00
51333;BME280;37417;48.118;11.734;2023-04-27T05:36:13;95552.22;;;5.63;100.00
51333;BME280;37417;48.118;11.734;2023-04-27T05:38:58;95548.00;;;5.54;100.00
51333;BME280;37417;48.118;11.734;2023-04-27T05:41:44;95548.16;;;5.36;100.00
51333;BME280;37417;48.118;11.734;2023-04-27T05:44:29;95541.03;;;5.79;100.00
51333;BME280;37417;48.118;11.734;2023-04-27T05:47:15;95549.75;;;6.18;100.00
51333;BME280;37417;48.118;11.734;2023-04-27T05:50:01;95555.75;;;6.19;100.00
51333;BME280;37417;48.118;11.734;2023-04-27T05:52:46;95576.47;;;6.11;100.00
51333;BME280;37417;48.118;11.734;2023-04-27T05:55:32;95568.03;;;6.25;100.00
51333;BME280;37417;48.118;11.734;2023-04-27T05:58:18;95571.13;;;6.20;100.00
51333;BME280;37417;48.118;11.734;2023-04-27T06:01:03;95567.91;;;6.18;100.00
51333;BME280;37417;48.118;11.734;2023-04-27T06:03:49;95572.16;;;6.59;100.00
51333;BME280;37417;48.118;11.734;2023-04-27T06:06:35;95567.19;;;6.80;100.00
51333;BME280;37417;48.118;11.734;2023-04-27T06:09:21;95560.06;;;7.13;100.00
51333;BME280;37417;48.118;11.734;2023-04-27T06:12:07;95564.69;;;7.72;100.00
51333;BME280;37417;48.118;11.734;2023-04-27T06:14:53;95571.06;;;8.07;100.00
51333;BME280;37417;48.118;11.734;2023-04-27T06:17:40;95571.44;;;8.33;100.00
51333;BME280;37417;48.118;11.734;2023-04-27T06:20:28;95567.75;;;8.13;100.00
51333;BME280;37417;48.118;11.734;2023-04-27T06:23:13;95562.69;;;8.49;100.00
51333;BME280;37417;48.118;11.734;2023-04-27T06:25:59;95568.41;;;8.74;100.00
51333;BME280;37417;48.118;11.734;2023-04-27T06:28:46;95571.03;;;9.25;100.00
51333;BME280;37417;48.118;11.734;2023-04-27T06:31:32;95569.22;;;9.62;100.00
51333;BME280;37417;48.118;11.734;2023-04-27T06:34:17;95573.91;;;9.52;100.00
51333;BME280;37417;48.118;11.734;2023-04-27T06:37:03;95576.81;;;9.63;100.00
51333;BME280;37417;48.118;11.734;2023-04-27T06:39:49;95578.78;;;9.40;100.00
51333;BME280;37417;48.118;11.734;2023-04-27T06:42:34;95590.09;;;9.47;100.00
51333;BME280;37417;48.118;11.734;2023-04-27T06:45:20;95583.22;;;9.61;100.00
51333;BME280;37417;48.118;11.734;2023-04-27T06:48:06;95578.91;;;9.32;100.00
51333;BME280;37417;48.118;11.734;2023-04-27T06:50:51;95577.22;;;9.60;100.00
51333;BME280;37417;48.118;11.734;2023-04-27T06:53:38;95571.22;;;10.09;100.00
51333;BME280;37417;48.118;11.734;2023-04-27T06:56:24;95577.81;;;9.84;100.00
51333;BME280;37417;48.118;11.734;2023-04-27T06:59:09;95584.06;;;9.89;100.00
51333;BME280;37417;48.118;11.734;2023-04-27T07:01:55;95581.66;;;9.45;100.00
51333;BME280;37417;48.118;11.734;2023-04-27T07:04:41;95579.25;;;10.36;100.00
51333;BME280;37417;48.118;11.734;2023-04-27T07:07:27;95581.94;;;10.83;100.00
51333;BME280;37417;48.118;11.734;2023-04-27T07:10:13;95586.22;;;10.98;100.00
51333;BME280;37417;48.118;11.734;2023-04-27T07:12:59;95580.47;;;11.16;100.00
51333;BME280;37417;48.118;11.734;2023-04-27T07:15:44;95578.19;;;11.54;99.09
51333;BME280;37417;48.118;11.734;2023-04-27T07:18:30;95586.78;;;10.87;100.00
51333;BME280;37417;48.118;11.734;2023-04-27T07:21:16;95579.91;;;11.27;99.32
51333;BME280;37417;48.118;11.734;2023-04-27T07:24:01;95580.09;;;11.25;99.93
51333;BME280;37417;48.118;11.734;2023-04-27T07:26:48;95582.97;;;10.82;100.00
51333;BME280;37417;48.118;11.734;2023-04-27T07:29:34;95581.84;;;10.64;100.00
51333;BME280;37417;48.118;11.734;2023-04-27T07:32:22;95582.41;;;10.59;100.00
51333;BME280;37417;48.118;11.734;2023-04-27T07:35:08;95583.66;;;10.63;100.00
51333;BME280;37417;48.118;11.734;2023-04-27T07:37:54;95582.50;;;11.27;99.49
51333;BME280;37417;48.118;11.734;2023-04-27T07:40:41;95577.78;;;11.57;98.72
51333;BME280;37417;48.118;11.734;2023-04-27T07:43:27;95588.13;;;11.98;96.70
51333;BME280;37417;48.118;11.734;2023-04-27T07:46:12;95585.28;;;12.46;92.06
51333;BME280;37417;48.118;11.734;2023-04-27T07:48:58;95592.72;;;12.69;90.16
51333;BME280;37417;48.118;11.734;2023-04-27T07:51:45;95590.03;;;12.89;89.25
51333;BME280;37417;48.118;11.734;2023-04-27T07:54:30;95590.91;;;12.63;88.84
51333;BME280;37417;48.118;11.734;2023-04-27T07:57:16;95595.19;;;13.15;87.76
51333;BME280;37417;48.118;11.734;2023-04-27T08:00:02;95593.44;;;13.02;88.55
51333;BME280;37417;48.118;11.734;2023-04-27T08:02:52;95593.91;;;12.73;88.08
51333;BME280;37417;48.118;11.734;2023-04-27T08:05:38;95589.28;;;11.08;96.70
51333;BME280;37417;48.118;11.734;2023-04-27T08:08:24;95596.81;;;13.23;89.51
51333;BME280;37417;48.118;11.734;2023-04-27T08:11:10;95598.13;;;14.08;83.04
51333;BME280;37417;48.118;11.734;2023-04-27T08:13:56;95593.91;;;13.76;79.06
51333;BME280;37417;48.118;11.734;2023-04-27T08:16:42;95597.56;;;12.59;82.15
51333;BME280;37417;48.118;11.734;2023-04-27T08:19:28;95598.28;;;12.92;85.50
51333;BME280;37417;48.118;11.734;2023-04-27T08:22:14;95598.59;;;13.29;81.56
51333;BME280;37417;48.118;11.734;2023-04-27T08:25:00;95593.91;;;12.60;80.77
51333;BME280;37417;48.118;11.734;2023-04-27T08:27:46;95597.94;;;12.76;79.35
51333;BME280;37417;48.118;11.734;2023-04-27T08:30:31;95600.28;;;12.97;79.06
51333;BME280;37417;48.118;11.734;2023-04-27T08:33:17;95605.66;;;13.28;76.34
51333;BME280;37417;48.118;11.734;2023-04-27T08:36:03;95601.41;;;14.04;74.03
51333;BME280;37417;48.118;11.734;2023-04-27T08:38:52;95609.66;;;14.57;70.41
51333;BME280;37417;48.118;11.734;2023-04-27T08:41:41;95606.91;;;15.26;67.65
51333;BME280;37417;48.118;11.734;2023-04-27T08:44:27;95607.19;;;16.26;64.03
51333;BME280;37417;48.118;11.734;2023-04-27T08:47:12;95616.31;;;16.77;59.46
51333;BME280;37417;48.118;11.734;2023-04-27T08:49:58;95609.66;;;18.07;56.26
51333;BME280;37417;48.118;11.734;2023-04-27T08:52:45;95603.03;;;18.21;56.10
51333;BME280;37417;48.118;11.734;2023-04-27T08:55:31;95605.94;;;17.74;54.14
51333;BME280;37417;48.118;11.734;2023-04-27T08:58:17;95605.72;;;17.93;54.75
51333;BME280;37417;48.118;11.734;2023-04-27T09:01:05;95598.50;;;18.17;54.68
51333;BME280;37417;48.118;11.734;2023-04-27T09:03:59;61376.22;;;-141.85;100.00
51333;BME280;37417;48.118;11.734;2023-04-27T09:06:45;61376.22;;;-141.85;100.00
51333;BME280;37417;48.118;11.734;2023-04-27T09:09:31;61376.22;;;-141.85;100.00
51333;BME280;37417;48.118;11.734;2023-04-27T09:12:18;61376.22;;;-141.85;100.00
51333;BME280;37417;48.118;11.734;2023-04-27T09:15:05;61376.22;;;-141.85;100.00
51333;BME280;37417;48.118;11.734;2023-04-27T09:17:56;61376.22;;;-141.85;100.00
51333;BME280;37417;48.118;11.734;2023-04-27T09:20:46;61376.22;;;-141.85;100.00
51333;BME280;37417;48.118;11.734;2023-04-27T09:23:33;61376.22;;;-141.85;100.00
51333;BME280;37417;48.118;11.734;2023-04-27T09:26:24;61376.22;;;-141.85;100.00
51333;BME280;37417;48.118;11.734;2023-04-27T09:29:11;61376.22;;;-141.85;100.00
51333;BME280;37417;48.118;11.734;2023-04-27T09:31:56;61376.22;;;-141.85;100.00
51333;BME280;37417;48.118;11.734;2023-04-27T09:34:42;61376.22;;;-141.85;100.00
51333;BME280;37417;48.118;11.734;2023-04-27T09:37:28;61376.22;;;-141.85;100.00
51333;BME280;37417;48.118;11.734;2023-04-27T09:40:14;61376.22;;;-141.85;100.00
51333;BME280;37417;48.118;11.734;2023-04-27T09:43:00;61376.22;;;-141.85;100.00
51333;BME280;37417;48.118;11.734;2023-04-27T09:45:47;61376.22;;;-141.85;100.00
51333;BME280;37417;48.118;11.734;2023-04-27T09:48:32;61376.22;;;-141.85;100.00
51333;BME280;37417;48.118;11.734;2023-04-27T09:51:18;61376.22;;;-141.85;100.00
51333;BME280;37417;48.118;11.734;2023-04-27T09:54:04;61376.22;;;-141.85;100.00
51333;BME280;37417;48.118;11.734;2023-04-27T09:57:27;61376.22;;;-141.85;100.00
51333;BME280;37417;48.118;11.734;2023-04-27T10:00:19;61376.22;;;-141.85;100.00
51333;BME280;37417;48.118;11.734;2023-04-27T10:03:22;61376.22;;;-141.85;100.00
51333;BME280;37417;48.118;11.734;2023-04-27T10:09:27;61376.22;;;-141.85;100.00
51333;BME280;37417;48.118;11.734;2023-04-27T10:15:13;95593.41;;;22.19;40.85
51333;BME280;37417;48.118;11.734;2023-04-27T10:18:03;95554.94;;;19.79;43.01
51333;BME280;37417;48.118;11.734;2023-04-27T10:20:49;61376.22;;;-141.85;100.00
51333;BME280;37417;48.118;11.734;2023-04-27T10:23:50;61376.22;;;-141.85;100.00
51333;BME280;37417;48.118;11.734;2023-04-27T10:26:45;61376.22;;;-141.85;100.00
51333;BME280;37417;48.118;11.734;2023-04-27T10:29:41;61376.22;;;-141.85;100.00
51333;BME280;37417;48.118;11.734;2023-04-27T10:32:27;61376.22;;;-141.85;100.00
51333;BME280;37417;48.118;11.734;2023-04-27T10:35:13;61376.22;;;-141.85;100.00
51333;BME280;37417;48.118;11.734;2023-04-27T10:38:06;61376.22;;;-141.85;100.00
51333;BME280;37417;48.118;11.734;2023-04-27T10:40:55;61376.22;;;-141.85;100.00
51333;BME280;37417;48.118;11.734;2023-04-27T10:43:46;61376.22;;;-141.85;100.00
51333;BME280;37417;48.118;11.734;2023-04-27T10:46:34;61376.22;;;-141.85;100.00
51333;BME280;37417;48.118;11.734;2023-04-27T10:49:21;61376.22;;;-141.85;100.00
51333;BME280;37417;48.118;11.734;2023-04-27T10:52:07;61376.22;;;-141.85;100.00
51333;BME280;37417;48.118;11.734;2023-04-27T10:54:53;61376.22;;;-141.85;100.00
51333;BME280;37417;48.118;11.734;2023-04-27T10:57:54;61376.22;;;-141.85;100.00
51333;BME280;37417;48.118;11.734;2023-04-27T11:00:40;61376.22;;;-141.85;100.00
51333;BME280;37417;48.118;11.734;2023-04-27T11:03:28;61376.22;;;-141.85;100.00
51333;BME280;37417;48.118;11.734;2023-04-27T11:06:15;61376.22;;;-141.85;100.00
51333;BME280;37417;48.118;11.734;2023-04-27T11:09:01;61376.22;;;-141.85;100.00
51333;BME280;37417;48.118;11.734;2023-04-27T11:11:49;61376.22;;;-141.85;100.00
51333;BME280;37417;48.118;11.734;2023-04-27T11:14:34;61376.22;;;-141.85;100.00
51333;BME280;37417;48.118;11.734;2023-04-27T11:17:31;61376.22;;;-141.85;100.00
51333;BME280;37417;48.118;11.734;2023-04-27T11:20:25;61376.22;;;-141.85;100.00
51333;BME280;37417;48.118;11.734;2023-04-27T11:23:27;61376.22;;;-141.85;100.00
51333;BME280;37417;48.118;11.734;2023-04-27T11:26:18;61376.22;;;-141.85;100.00
51333;BME280;37417;48.118;11.734;2023-04-27T11:29:09;61376.22;;;-141.85;100.00
51333;BME280;37417;48.118;11.734;2023-04-27T11:31:57;61376.22;;;-141.85;100.00
51333;BME280;37417;48.118;11.734;2023-04-27T11:34:51;61376.22;;;-141.85;100.00
51333;BME280;37417;48.118;11.734;2023-04-27T11:37:37;61376.22;;;-141.85;100.00
51333;BME280;37417;48.118;11.734;2023-04-27T11:40:22;61376.22;;;-141.85;100.00
51333;BME280;37417;48.118;11.734;2023-04-27T11:43:14;61376.22;;;-141.85;100.00
51333;BME280;37417;48.118;11.734;2023-04-27T11:46:03;61376.22;;;-141.85;100.00
51333;BME280;37417;48.118;11.734;2023-04-27T11:48:50;61376.22;;;-141.85;100.00
51333;BME280;37417;48.118;11.734;2023-04-27T11:51:36;61376.22;;;-141.85;100.00
51333;BME280;37417;48.118;11.734;2023-04-27T11:54:27;61376.22;;;-141.85;100.00
51333;BME280;37417;48.118;11.734;2023-04-27T11:57:13;61376.22;;;-141.85;100.00
51333;BME280;37417;48.118;11.734;2023-04-27T12:00:01;61376.22;;;-141.85;100.00
51333;BME280;37417;48.118;11.734;2023-04-27T12:02:47;61376.22;;;-141.85;100.00
51333;BME280;37417;48.118;11.734;2023-04-27T12:05:33;61376.22;;;-141.85;100.00
51333;BME280;37417;48.118;11.734;2023-04-27T12:08:19;61376.22;;;-141.85;100.00
51333;BME280;37417;48.118;11.734;2023-04-27T12:11:05;61376.22;;;-141.85;100.00
51333;BME280;37417;48.118;11.734;2023-04-27T12:13:50;61376.22;;;-141.85;100.00
51333;BME280;37417;48.118;11.734;2023-04-27T12:16:36;61376.22;;;-141.85;100.00
51333;BME280;37417;48.118;11.734;2023-04-27T12:19:22;61376.22;;;-141.85;100.00
51333;BME280;37417;48.118;11.734;2023-04-27T12:22:11;61376.22;;;-141.85;100.00
51333;BME280;37417;48.118;11.734;2023-04-27T12:24:57;61376.22;;;-141.85;100.00
51333;BME280;37417;48.118;11.734;2023-04-27T12:27:43;61376.22;;;-141.85;100.00
51333;BME280;37417;48.118;11.734;2023-04-27T12:30:31;61376.22;;;-141.85;100.00
51333;BME280;37417;48.118;11.734;2023-04-27T12:33:17;61376.22;;;-141.85;100.00
51333;BME280;37417;48.118;11.734;2023-04-27T12:36:03;61376.22;;;-141.85;100.00
51333;BME280;37417;48.118;11.734;2023-04-27T12:38:49;61376.22;;;-141.85;100.00
51333;BME280;37417;48.118;11.734;2023-04-27T12:41:34;61376.22;;;-141.85;100.00
51333;BME280;37417;48.118;11.734;2023-04-27T12:44:21;61376.22;;;-141.85;100.00
51333;BME280;37417;48.118;11.734;2023-04-27T12:47:07;61376.22;;;-141.85;100.00
51333;BME280;37417;48.118;11.734;2023-04-27T12:49:53;61376.22;;;-141.85;100.00
51333;BME280;37417;48.118;11.734;2023-04-27T12:52:39;61376.22;;;-141.85;100.00
51333;BME280;37417;48.118;11.734;2023-04-27T12:55:24;61376.22;;;-141.85;100.00
51333;BME280;37417;48.118;11.734;2023-04-27T12:58:11;61376.22;;;-141.85;100.00
51333;BME280;37417;48.118;11.734;2023-04-27T13:00:57;61376.22;;;-141.85;100.00
51333;BME280;37417;48.118;11.734;2023-04-27T13:03:43;61376.22;;;-141.85;100.00
51333;BME280;37417;48.118;11.734;2023-04-27T13:06:29;61376.22;;;-141.85;100.00
51333;BME280;37417;48.118;11.734;2023-04-27T13:09:16;61376.22;;;-141.85;100.00
51333;BME280;37417;48.118;11.734;2023-04-27T13:12:02;61376.22;;;-141.85;100.00
51333;BME280;37417;48.118;11.734;2023-04-27T13:14:47;61376.22;;;-141.85;100.00
51333;BME280;37417;48.118;11.734;2023-04-27T13:17:33;61376.22;;;-141.85;100.00
51333;BME280;37417;48.118;11.734;2023-04-27T13:20:19;61376.22;;;-141.85;100.00
51333;BME280;37417;48.118;11.734;2023-04-27T13:23:05;61376.22;;;-141.85;100.00
51333;BME280;37417;48.118;11.734;2023-04-27T13:25:51;61376.22;;;-141.85;100.00
51333;BME280;37417;48.118;11.734;2023-04-27T13:28:37;61376.22;;;-141.85;100.00
51333;BME280;37417;48.118;11.734;2023-04-27T13:31:23;61376.22;;;-141.85;100.00
51333;BME280;37417;48.118;11.734;2023-04-27T13:34:08;61376.22;;;-141.85;100.00
51333;BME280;37417;48.118;11.734;2023-04-27T13:36:54;61376.22;;;-141.85;100.00
51333;BME280;37417;48.118;11.734;2023-04-27T13:39:40;61376.22;;;-141.85;100.00
51333;BME280;37417;48.118;11.734;2023-04-27T13:42:25;61376.22;;;-141.85;100.00
51333;BME280;37417;48.118;11.734;2023-04-27T13:45:13;61376.22;;;-141.85;100.00
51333;BME280;37417;48.118;11.734;2023-04-27T13:47:59;61376.22;;;-141.85;100.00
51333;BME280;37417;48.118;11.734;2023-04-27T13:50:45;61376.22;;;-141.85;100.00
51333;BME280;37417;48.118;11.734;2023-04-27T13:53:31;61376.22;;;-141.85;100.00
51333;BME280;37417;48.118;11.734;2023-04-27T13:56:16;61376.22;;;-141.85;100.00
51333;BME280;37417;48.118;11.734;2023-04-27T13:59:02;61376.22;;;-141.85;100.00
51333;BME280;37417;48.118;11.734;2023-04-27T14:01:48;61376.22;;;-141.85;100.00
51333;BME280;37417;48.118;11.734;2023-04-27T14:04:34;61376.22;;;-141.85;100.00
51333;BME280;37417;48.118;11.734;2023-04-27T14:07:19;61376.22;;;-141.85;100.00
51333;BME280;37417;48.118;11.734;2023-04-27T14:10:06;61376.22;;;-141.85;100.00
51333;BME280;37417;48.118;11.734;2023-04-27T14:12:51;61376.22;;;-141.85;100.00
51333;BME280;37417;48.118;11.734;2023-04-27T14:15:37;61376.22;;;-141.85;100.00
51333;BME280;37417;48.118;11.734;2023-04-27T14:18:23;61376.22;;;-141.85;100.00
51333;BME280;37417;48.118;11.734;2023-04-27T14:21:08;61376.22;;;-141.85;100.00
51333;BME280;37417;48.118;11.734;2023-04-27T14:23:54;61376.22;;;-141.85;100.00